Time;durP1;ratioP1;P1;durP2;ratioP2;P2;SDS_P1;SDS_P2;PMS_P1;PMS_P2;Temp;Humidity;BMP_temperature;BMP_pressure;BME280_temperature;BME280_humidity;BME280_pressure;Samples;Min_cycle;Max_cycle;Signal;HPM_P1;HPM_P2
2021/12/23 00:00:55;;;;;;;38.47;14.23;;;;;;;-3.49;100.00;23294.66;4960083;28;20045;-65
2021/12/23 00:03:21;;;;;;;32.87;13.13;;;;;;;-3.38;100.00;23581.66;4959437;28;20066;-65
2021/12/23 00:05:47;;;;;;;35.90;13.87;;;;;;;-3.37;100.00;23314.97;4960071;28;20325;-65
2021/12/23 00:08:12;;;;;;;32.53;13.23;;;;;;;-3.39;100.00;22756.75;4959906;28;20432;-65
2021/12/23 00:10:38;;;;;;;32.77;12.60;;;;;;;-3.38;100.00;22837.13;4960437;28;20026;-65
2021/12/23 00:13:04;;;;;;;42.80;14.03;;;;;;;-3.39;100.00;22304.84;4959364;28;20039;-65
2021/12/23 00:15:39;;;;;;;38.07;14.90;;;;;;;-3.41;100.00;22004.28;4955766;28;20702;-65
2021/12/23 00:25:52;;;;;;;34.67;14.00;;;;;;;-3.43;100.00;21381.66;5017791;28;20395;-64
2021/12/23 00:28:18;;;;;;;33.37;12.97;;;;;;;-3.45;100.00;21542.94;5013941;28;20268;-65
2021/12/23 00:30:44;;;;;;;35.77;14.77;;;;;;;-3.44;100.00;21773.06;5017390;28;20346;-65
2021/12/23 00:33:09;;;;;;;36.83;14.10;;;;;;;-3.45;100.00;21685.47;5013099;28;20065;-65
2021/12/23 00:35:36;;;;;;;34.63;12.93;;;;;;;-3.36;100.00;21402.00;5020434;28;20029;-65
2021/12/23 00:38:07;;;;;;;35.93;13.40;;;;;;;-3.38;100.00;20879.16;5018631;28;20122;-64
2021/12/23 00:40:32;;;;;;;34.33;12.90;;;;;;;-3.45;100.00;20624.19;5009927;28;20276;-64
2021/12/23 00:42:58;;;;;;;34.37;13.93;;;;;;;-3.54;100.00;20032.03;5014175;28;20069;-65
2021/12/23 00:45:24;;;;;;;37.20;15.13;;;;;;;-3.51;100.00;20497.22;5020223;28;20037;-64
2021/12/23 00:47:49;;;;;;;34.97;14.07;;;;;;;-3.53;100.00;21005.59;5015416;28;20021;-65
2021/12/23 00:50:15;;;;;;;33.67;12.73;;;;;;;-3.55;100.00;21202.19;5005868;28;20029;-64
2021/12/23 00:52:41;;;;;;;36.93;15.03;;;;;;;-3.49;100.00;21466.59;5009580;28;20028;-65
2021/12/23 00:55:10;;;;;;;36.57;13.70;;;;;;;-3.48;100.00;21826.34;5019767;28;20288;-64
2021/12/23 00:57:39;;;;;;;35.73;13.37;;;;;;;-3.45;100.00;22002.59;5019715;28;20033;-64
2021/12/23 01:00:08;;;;;;;33.17;14.47;;;;;;;-3.44;100.00;22257.53;5012815;28;20331;-65
2021/12/23 01:02:34;;;;;;;30.80;13.80;;;;;;;-3.41;100.00;22378.91;5019060;28;20296;-64
2021/12/23 01:05:00;;;;;;;37.30;13.40;;;;;;;-3.35;100.00;22603.59;5008343;28;20753;-65
2021/12/23 01:07:26;;;;;;;39.07;14.17;;;;;;;-3.30;100.00;23143.16;5016066;28;20037;-65
2021/12/23 01:09:52;;;;;;;33.93;13.03;;;;;;;-3.23;100.00;23096.03;5006887;28;20061;-65
2021/12/23 01:12:23;;;;;;;37.47;13.13;;;;;;;-3.21;100.00;23106.69;5017156;28;22413;-65
2021/12/23 01:15:10;;;;;;;38.57;15.13;;;;;;;-3.19;100.00;23042.81;5008368;28;20284;-65
2021/12/23 01:17:53;;;;;;;32.83;14.13;;;;;;;-3.18;100.00;22938.06;5012179;28;20268;-65
2021/12/23 01:20:26;;;;;;;40.37;15.03;;;;;;;-3.15;100.00;23207.03;5019307;28;20363;-65
2021/12/23 01:22:54;;;;;;;36.47;13.27;;;;;;;-3.11;100.00;22831.38;5019988;28;20780;-65
2021/12/23 01:25:19;;;;;;;34.13;14.87;;;;;;;-3.09;100.00;23059.69;5016664;28;20264;-65
2021/12/23 01:27:45;;;;;;;38.47;14.97;;;;;;;-3.06;100.00;23333.25;5007978;28;20295;-65
2021/12/23 01:30:11;;;;;;;35.37;13.87;;;;;;;-3.07;100.00;22960.59;5012589;28;20033;-65
2021/12/23 01:32:36;;;;;;;34.20;13.93;;;;;;;-3.04;100.00;22569.25;5016723;28;20445;-65
2021/12/23 01:35:02;;;;;;;36.30;14.47;;;;;;;-3.05;100.00;22391.59;5021606;28;20033;-65
2021/12/23 01:37:27;;;;;;;32.60;13.50;;;;;;;-3.07;100.00;21698.34;5019155;28;20048;-65
2021/12/23 01:39:53;;;;;;;33.33;13.27;;;;;;;-3.06;100.00;21059.38;5021057;28;20694;-65
2021/12/23 01:42:18;;;;;;;35.63;14.50;;;;;;;-3.07;100.00;20269.66;5013832;28;20022;-65
2021/12/23 01:44:44;;;;;;;37.07;14.17;;;;;;;-3.08;100.00;20109.44;5012355;28;20107;-65
2021/12/23 01:47:09;;;;;;;34.53;13.23;;;;;;;-3.07;100.00;19750.22;5017379;28;20375;-65
2021/12/23 01:49:34;;;;;;;35.53;13.60;;;;;;;-3.07;100.00;20376.88;5007564;28;20067;-65
2021/12/23 01:52:00;;;;;;;35.60;14.07;;;;;;;-3.06;100.00;20764.41;5010241;28;20045;-65
2021/12/23 01:54:25;;;;;;;33.53;13.20;;;;;;;-3.05;100.00;21039.78;5014038;28;20037;-64
2021/12/23 01:56:51;;;;;;;31.20;14.07;;;;;;;-3.03;100.00;20870.72;5021157;28;20365;-64
2021/12/23 01:59:17;;;;;;;34.00;13.83;;;;;;;-3.01;100.00;21700.84;5008431;28;20116;-64
2021/12/23 02:01:44;;;;;;;34.00;14.03;;;;;;;-3.02;100.00;21245.88;5017270;28;20029;-64
2021/12/23 02:04:09;;;;;;;35.43;13.33;;;;;;;-3.01;100.00;21831.00;4977666;28;1241083;-66
2021/12/23 02:06:35;;;;;;;30.90;13.47;;;;;;;-2.98;100.00;22357.09;5016604;28;20437;-66
2021/12/23 02:09:00;;;;;;;36.50;14.77;;;;;;;-2.96;100.00;22178.00;5021323;28;20537;-66
2021/12/23 02:11:26;;;;;;;36.77;15.03;;;;;;;-2.96;100.00;22257.75;5019839;28;20698;-66
2021/12/23 02:13:51;;;;;;;32.43;14.00;;;;;;;-2.96;100.00;22482.94;5007572;28;20030;-66
2021/12/23 02:16:17;;;;;;;33.37;14.77;;;;;;;-2.93;100.00;22858.75;5022702;28;20510;-66
2021/12/23 02:18:42;;;;;;;34.73;13.80;;;;;;;-2.93;100.00;22783.78;5018237;28;20025;-66
2021/12/23 02:21:08;;;;;;;35.70;14.83;;;;;;;-2.92;100.00;23219.22;5006412;28;20026;-66
2021/12/23 02:23:34;;;;;;;34.67;13.47;;;;;;;-2.89;100.00;22975.53;5004710;28;20064;-66
2021/12/23 02:26:00;;;;;;;33.87;13.30;;;;;;;-2.89;100.00;22625.72;5014658;28;20037;-66
2021/12/23 02:28:27;;;;;;;32.77;13.33;;;;;;;-2.87;100.00;23491.72;5019169;28;20295;-66
2021/12/23 02:30:52;;;;;;;31.93;13.37;;;;;;;-2.87;100.00;23606.53;5010154;28;20038;-66
2021/12/23 02:33:23;;;;;;;35.53;14.83;;;;;;;-2.88;100.00;23721.13;5016043;28;20283;-66
2021/12/23 02:35:49;;;;;;;40.40;14.60;;;;;;;-2.88;100.00;23671.34;5013963;28;20026;-66
2021/12/23 02:38:15;;;;;;;33.80;14.07;;;;;;;-2.86;100.00;23962.13;5020221;28;20787;-66
2021/12/23 02:40:43;;;;;;;34.03;13.53;;;;;;;-2.86;100.00;24417.59;5013019;28;20291;-67
2021/12/23 02:43:14;;;;;;;35.97;13.63;;;;;;;-2.84;100.00;24751.03;5013660;28;20040;-65
2021/12/23 02:45:40;;;;;;;36.23;14.97;;;;;;;-2.83;100.00;25344.72;5004907;28;20284;-66
2021/12/23 02:48:14;;;;;;;35.57;13.37;;;;;;;-2.80;100.00;25543.59;5013129;28;20280;-66
2021/12/23 02:50:41;;;;;;;34.37;14.87;;;;;;;-2.80;100.00;25531.09;5013114;28;20787;-66
2021/12/23 02:53:07;;;;;;;33.17;13.83;;;;;;;-2.81;100.00;25168.00;5017815;28;20288;-66
2021/12/23 02:55:33;;;;;;;34.40;13.17;;;;;;;-2.83;100.00;24703.94;5022121;28;20296;-66
2021/12/23 02:57:58;;;;;;;34.10;14.33;;;;;;;-2.80;100.00;24520.44;5016964;28;20445;-66
2021/12/23 03:00:24;;;;;;;37.93;13.47;;;;;;;-2.82;100.00;24579.56;5021754;28;20538;-66
2021/12/23 03:02:49;;;;;;;36.00;14.80;;;;;;;-2.79;100.00;24760.84;5011329;28;20037;-66
2021/12/23 03:05:15;;;;;;;33.67;12.87;;;;;;;-2.76;100.00;25330.31;5008460;28;20513;-66
2021/12/23 03:07:40;;;;;;;32.07;12.97;;;;;;;-2.75;100.00;25648.63;5018696;28;20041;-66
2021/12/23 03:10:07;;;;;;;31.93;14.07;;;;;;;-2.77;100.00;25915.72;5022616;28;20033;-66
2021/12/23 03:12:34;;;;;;;32.37;13.67;;;;;;;-2.65;100.00;26509.69;5018118;28;20022;-66
2021/12/23 03:15:00;;;;;;;30.83;12.87;;;;;;;-2.71;100.00;26118.66;5020550;28;20772;-66
2021/12/23 03:17:26;;;;;;;35.47;14.27;;;;;;;-2.72;100.00;26506.22;5009701;28;20273;-66
2021/12/23 03:19:51;;;;;;;30.63;12.67;;;;;;;-2.67;100.00;27871.06;5012651;28;20347;-66
2021/12/23 03:22:16;;;;;;;39.47;15.60;;;;;;;-2.68;100.00;28136.06;5003839;28;20041;-66
2021/12/23 03:24:42;;;;;;;36.07;14.23;;;;;;;-2.72;100.00;28088.88;5003986;28;20036;-66
2021/12/23 03:27:07;;;;;;;34.47;14.10;;;;;;;-2.69;100.00;28521.34;5012329;28;20045;-66
2021/12/23 03:29:33;;;;;;;33.53;13.97;;;;;;;-2.68;100.00;29383.81;5019901;28;20162;-66
2021/12/23 03:31:58;;;;;;;36.53;14.80;;;;;;;-2.63;100.00;29431.66;5019112;28;20493;-66
2021/12/23 03:34:24;;;;;;;35.83;14.00;;;;;;;-2.52;100.00;29793.34;5013925;28;20036;-66
2021/12/23 03:36:49;;;;;;;39.20;15.13;;;;;;;-2.56;100.00;28673.56;5019706;28;20033;-66
2021/12/23 03:39:15;;;;;;;32.43;12.70;;;;;;;-2.53;100.00;27865.81;5016815;28;20041;-66
2021/12/23 03:41:41;;;;;;;34.67;13.63;;;;;;;-2.56;100.00;27425.84;5020059;28;20501;-66
2021/12/23 03:44:06;;;;;;;31.73;13.67;;;;;;;-2.56;100.00;27508.53;5010885;28;20874;-66
2021/12/23 03:46:32;;;;;;;33.30;13.13;;;;;;;-2.50;100.00;27935.03;5005315;28;20356;-66
2021/12/23 03:48:58;;;;;;;25.40;11.13;;;;;;;-2.38;100.00;27725.75;5018879;28;20058;-66
2021/12/23 03:51:23;;;;;;;30.00;12.33;;;;;;;-2.34;100.00;25748.09;5009537;28;20022;-66
2021/12/23 03:53:48;;;;;;;27.57;12.70;;;;;;;-2.43;100.00;24697.59;5020102;28;20032;-66
2021/12/23 03:56:15;;;;;;;29.93;12.77;;;;;;;-2.36;100.00;24004.88;5026069;28;20029;-66
2021/12/23 03:58:40;;;;;;;26.90;10.70;;;;;;;-2.30;100.00;23048.44;5025009;28;20025;-66
2021/12/23 04:01:06;;;;;;;30.70;12.77;;;;;;;-2.39;100.00;21896.53;5021450;28;20283;-67
2021/12/23 04:03:31;;;;;;;33.37;13.27;;;;;;;-2.42;100.00;21450.06;5014643;28;20029;-66
2021/12/23 04:05:57;;;;;;;27.13;10.47;;;;;;;-2.31;100.00;21671.81;5025544;28;20049;-66
2021/12/23 04:08:22;;;;;;;26.43;11.03;;;;;;;-2.22;100.00;20502.50;5014440;28;20057;-66
2021/12/23 04:10:48;;;;;;;27.80;11.33;;;;;;;-2.29;100.00;18659.59;5011685;28;20641;-66
2021/12/23 04:13:13;;;;;;;19.43;8.43;;;;;;;-2.17;100.00;18206.31;5017520;28;20126;-66
2021/12/23 04:15:39;;;;;;;19.50;8.30;;;;;;;-2.07;100.00;16572.75;5021070;28;20077;-66
2021/12/23 04:18:04;;;;;;;16.57;7.63;;;;;;;-2.08;100.00;14029.63;5019736;28;20029;-64
2021/12/23 04:20:45;;;;;;;27.23;11.70;;;;;;;-2.16;100.00;11277.41;5025788;28;20631;-63
2021/12/23 04:23:10;;;;;;;25.53;10.77;;;;;;;-2.23;100.00;10347.91;5018297;28;20731;-66
2021/12/23 04:25:36;;;;;;;26.17;11.93;;;;;;;-2.26;100.00;11529.28;5026268;28;20275;-66
2021/12/23 04:28:02;;;;;;;27.47;12.13;;;;;;;-2.31;100.00;12954.94;5020441;28;20059;-66
2021/12/23 04:30:28;;;;;;;27.13;11.80;;;;;;;-2.34;100.00;13181.31;5010216;28;20461;-66
2021/12/23 04:32:53;;;;;;;30.33;12.73;;;;;;;-2.31;100.00;12216.47;5011841;28;20072;-66
2021/12/23 04:35:19;;;;;;;28.90;12.17;;;;;;;-2.30;100.00;11376.16;5014456;28;20036;-66
2021/12/23 04:37:45;;;;;;;32.50;13.07;;;;;;;-2.26;100.00;11953.31;5019299;28;20037;-66
2021/12/23 04:40:11;;;;;;;31.03;13.07;;;;;;;-2.29;100.00;13175.06;5017637;28;20112;-66
2021/12/23 04:42:38;;;;;;;30.40;11.93;;;;;;;-2.31;100.00;13384.13;5010661;28;20030;-66
2021/12/23 04:45:05;;;;;;;31.27;13.33;;;;;;;-2.33;100.00;12924.59;5021150;28;20269;-66
2021/12/23 04:47:30;;;;;;;29.60;12.63;;;;;;;-2.30;100.00;13369.44;5015445;28;20277;-66
2021/12/23 04:49:56;;;;;;;30.33;13.10;;;;;;;-2.28;100.00;13899.09;5016883;28;20268;-66
2021/12/23 04:52:21;;;;;;;31.50;11.70;;;;;;;-2.24;100.00;15098.56;5012864;28;20064;-66
2021/12/23 04:54:47;;;;;;;35.33;14.13;;;;;;;-2.27;100.00;15362.34;5025046;28;20026;-66
2021/12/23 04:57:12;;;;;;;29.97;12.67;;;;;;;-2.27;100.00;15826.81;5021978;28;20052;-66
2021/12/23 04:59:37;;;;;;;30.50;12.03;;;;;;;-2.29;100.00;16880.41;5022757;28;20025;-66
2021/12/23 05:02:03;;;;;;;30.50;13.73;;;;;;;-2.28;100.00;17455.22;5006001;28;20033;-66
2021/12/23 05:04:28;;;;;;;28.87;12.53;;;;;;;-2.28;100.00;18044.94;5009033;28;20052;-66
2021/12/23 05:06:54;;;;;;;31.73;13.00;;;;;;;-2.27;100.00;17930.34;5023970;28;20033;-66
2021/12/23 05:09:19;;;;;;;29.47;13.37;;;;;;;-2.28;100.00;18320.03;5011202;28;20033;-66
2021/12/23 05:11:45;;;;;;;31.60;13.10;;;;;;;-2.26;100.00;19032.94;5015983;28;20478;-66
2021/12/23 05:14:11;;;;;;;32.77;13.47;;;;;;;-2.25;100.00;19943.44;5010278;28;20040;-66
2021/12/23 05:16:37;;;;;;;34.40;13.97;;;;;;;-2.25;100.00;20671.38;5005619;28;20045;-66
2021/12/23 05:19:03;;;;;;;34.90;14.67;;;;;;;-2.24;100.00;21514.59;5013090;28;20303;-64
2021/12/23 05:21:28;;;;;;;31.63;12.80;;;;;;;-2.21;100.00;22123.88;5017868;28;20272;-66
2021/12/23 05:23:54;;;;;;;36.57;13.67;;;;;;;-2.22;100.00;22661.50;5016515;28;20123;-66
2021/12/23 05:26:19;;;;;;;33.00;13.57;;;;;;;-2.24;100.00;22505.47;5024794;28;20063;-66
2021/12/23 05:28:45;;;;;;;35.67;13.73;;;;;;;-2.23;100.00;22763.91;5011799;28;20033;-66
2021/12/23 05:31:10;;;;;;;32.23;13.73;;;;;;;-2.21;100.00;23267.91;5018389;28;20044;-66
2021/12/23 05:33:36;;;;;;;33.47;13.20;;;;;;;-2.18;100.00;23391.91;5016975;28;20032;-66
2021/12/23 05:36:03;;;;;;;32.97;13.40;;;;;;;-2.17;100.00;23437.41;5005857;28;20055;-66
2021/12/23 05:38:28;;;;;;;30.73;13.23;;;;;;;-2.15;100.00;23768.56;5003652;28;20026;-66
2021/12/23 05:40:54;;;;;;;29.53;13.37;;;;;;;-2.17;100.00;23292.19;5003004;28;20815;-66
2021/12/23 05:43:19;;;;;;;31.00;13.37;;;;;;;-2.12;100.00;23299.19;5014116;28;20509;-66
2021/12/23 05:45:45;;;;;;;31.60;13.43;;;;;;;-2.11;100.00;22739.06;5003992;28;20018;-66
2021/12/23 05:48:10;;;;;;;31.40;13.67;;;;;;;-2.10;100.00;21798.16;5015056;28;20606;-66
2021/12/23 05:50:36;;;;;;;32.70;13.50;;;;;;;-2.07;100.00;20898.53;5007286;28;20026;-66
2021/12/23 05:53:01;;;;;;;28.67;13.47;;;;;;;-1.99;100.00;18527.81;5008080;28;20018;-66
2021/12/23 05:55:27;;;;;;;34.20;13.10;;;;;;;-1.93;100.00;15632.72;5011625;28;20021;-66
2021/12/23 05:57:52;;;;;;;33.13;13.27;;;;;;;-1.95;100.00;12700.00;5009344;28;20043;-66
2021/12/23 06:00:24;;;;;;;30.07;13.33;;;;;;;-1.97;100.00;10752.78;5023529;28;20394;-66
2021/12/23 06:02:50;;;;;;;32.90;13.57;;;;;;;-1.98;100.00;10076.66;5019535;28;20788;-66
2021/12/23 06:05:16;;;;;;;29.87;12.73;;;;;;;-1.96;100.00;8752.75;5022625;28;20077;-66
2021/12/23 06:07:42;;;;;;;27.60;12.30;;;;;;;-1.97;100.00;6803.34;5015525;28;20291;-66
2021/12/23 06:10:08;;;;;;;78.87;14.30;;;;;;;-1.97;100.00;5889.03;5013219;28;20285;-66
2021/12/23 06:12:34;;;;;;;31.77;14.00;;;;;;;-1.96;100.00;4404.75;5015423;28;20352;-64
2021/12/23 06:14:59;;;;;;;30.10;12.83;;;;;;;-1.89;100.00;3068.53;5015617;28;20777;-64
2021/12/23 06:17:25;;;;;;;26.20;11.17;;;;;;;-1.90;100.00;5040.63;5020376;28;20029;-66
2021/12/23 06:19:50;;;;;;;24.90;10.87;;;;;;;-1.92;100.00;5927.16;5018770;28;20025;-66
2021/12/23 06:22:18;;;;;;;26.37;11.13;;;;;;;-1.94;100.00;6402.75;5013011;28;20649;-66
2021/12/23 06:24:46;;;;;;;33.93;13.13;;;;;;;-2.00;100.00;6867.72;5024037;28;20624;-66
2021/12/23 06:27:12;;;;;;;29.50;13.27;;;;;;;-2.05;100.00;8319.69;5018128;28;20569;-66
2021/12/23 06:29:37;;;;;;;30.07;12.83;;;;;;;-2.05;100.00;8915.50;5023790;28;20264;-66
2021/12/23 06:32:03;;;;;;;31.70;12.73;;;;;;;-2.03;100.00;10357.28;5021910;28;20415;-66
2021/12/23 06:34:28;;;;;;;33.07;13.60;;;;;;;-2.06;100.00;10865.56;5003909;28;20018;-66
2021/12/23 06:36:54;;;;;;;29.63;11.97;;;;;;;-2.05;100.00;11100.31;5005019;28;20324;-66
2021/12/23 06:39:20;;;;;;;30.17;13.43;;;;;;;-2.02;100.00;9347.56;5012097;28;20032;-66
2021/12/23 06:41:45;;;;;;;31.90;12.60;;;;;;;-2.01;100.00;8594.69;5005244;28;20026;-66
2021/12/23 06:44:10;;;;;;;31.43;13.40;;;;;;;-2.01;100.00;9195.66;5010419;28;20041;-66
2021/12/23 06:46:36;;;;;;;32.57;13.63;;;;;;;-1.98;100.00;9178.84;5005391;28;20026;-66
2021/12/23 06:49:02;;;;;;;33.60;13.03;;;;;;;-1.96;100.00;7346.88;5003422;28;20033;-66
2021/12/23 06:51:28;;;;;;;29.87;13.60;;;;;;;-1.96;100.00;5293.84;5020291;28;20030;-66
2021/12/23 06:53:54;;;;;;;31.80;13.27;;;;;;;-1.95;100.00;5157.00;5018380;28;21062;-66
2021/12/23 06:56:19;;;;;;;31.00;13.97;;;;;;;-1.98;100.00;7229.31;5017844;28;20610;-66
2021/12/23 06:58:49;;;;;;;31.73;13.93;;;;;;;-1.99;100.00;9460.41;5016788;28;20119;-66
2021/12/23 07:01:17;;;;;;;34.63;13.27;;;;;;;-1.99;100.00;11965.00;5022619;28;20030;-66
2021/12/23 07:06:22;;;;;;;35.40;12.90;;;;;;;-1.99;100.00;12873.69;5003544;28;20265;-66
2021/12/23 07:08:48;;;;;;;30.73;12.80;;;;;;;-1.97;100.00;13078.78;5011339;28;20276;-64
2021/12/23 07:11:13;;;;;;;31.53;13.60;;;;;;;-1.96;100.00;10560.94;5006295;28;20280;-64
2021/12/23 07:13:39;;;;;;;32.07;14.00;;;;;;;-1.95;100.00;8548.50;5009890;28;20034;-64
2021/12/23 07:16:04;;;;;;;39.23;16.50;;;;;;;-1.91;100.00;8344.81;5002986;28;20069;-64
2021/12/23 07:18:30;;;;;;;36.00;14.23;;;;;;;-1.90;100.00;7417.72;5011960;28;20259;-64
2021/12/23 07:20:55;;;;;;;30.10;12.73;;;;;;;-1.89;100.00;6859.50;5007762;28;20131;-64
2021/12/23 07:23:21;;;;;;;32.97;14.20;;;;;;;-1.87;100.00;8462.88;5016130;28;20449;-64
2021/12/23 07:25:46;;;;;;;32.67;14.50;;;;;;;-1.87;100.00;10031.69;5022538;28;20389;-64
2021/12/23 07:28:11;;;;;;;33.90;12.97;;;;;;;-1.89;100.00;11782.94;5012943;28;20040;-64
2021/12/23 07:30:37;;;;;;;32.47;13.03;;;;;;;-1.89;100.00;13153.38;5004184;28;20744;-64
2021/12/23 07:33:02;;;;;;;35.33;13.60;;;;;;;-1.89;100.00;14637.06;5013046;28;20040;-65
2021/12/23 07:35:28;;;;;;;28.40;13.43;;;;;;;-1.89;100.00;15479.03;5015213;28;20037;-65
2021/12/23 07:37:54;;;;;;;31.67;13.00;;;;;;;-1.88;100.00;15966.66;5008609;28;20025;-65
2021/12/23 07:40:19;;;;;;;31.07;13.33;;;;;;;-1.85;100.00;16310.03;5005951;28;20021;-65
2021/12/23 07:42:57;;;;;;;34.07;13.37;;;;;;;-1.84;100.00;16812.81;5010854;28;20037;-65
2021/12/23 07:45:28;;;;;;;30.40;12.80;;;;;;;-1.82;100.00;17426.06;5022359;28;20085;-64
2021/12/23 07:47:54;;;;;;;32.03;13.50;;;;;;;-1.81;100.00;16548.81;5018277;28;20758;-64
2021/12/23 07:50:20;;;;;;;33.87;14.23;;;;;;;-1.78;100.00;15312.53;5012546;28;20298;-65
2021/12/23 07:52:46;;;;;;;33.20;14.93;;;;;;;-1.73;100.00;15034.00;5011811;28;20267;-64
2021/12/23 07:55:12;;;;;;;31.67;14.07;;;;;;;-1.70;100.00;14999.78;5019396;28;20288;-64
2021/12/23 07:57:38;;;;;;;31.87;13.47;;;;;;;-1.69;100.00;14975.25;5018415;28;20030;-65
2021/12/23 08:00:05;;;;;;;31.63;13.67;;;;;;;-1.68;100.00;15270.31;5001840;28;20272;-64
2021/12/23 08:02:30;;;;;;;33.00;13.53;;;;;;;-1.65;100.00;14214.09;5001591;28;20056;-65
2021/12/23 08:04:56;;;;;;;30.87;13.33;;;;;;;-1.62;100.00;15512.13;5010687;28;20288;-65
2021/12/23 08:07:21;;;;;;;33.37;13.97;;;;;;;-1.62;100.00;16257.34;5014858;28;20821;-65
2021/12/23 08:09:46;;;;;;;36.37;14.70;;;;;;;-1.59;100.00;17133.47;5001782;28;20033;-65
2021/12/23 08:12:12;;;;;;;34.13;15.70;;;;;;;-1.56;100.00;17742.38;5004547;28;20072;-65
2021/12/23 08:14:37;;;;;;;31.60;13.60;;;;;;;-1.55;100.00;18005.41;5013187;28;20041;-65
2021/12/23 08:17:03;;;;;;;35.53;14.60;;;;;;;-1.53;100.00;17801.13;5001812;28;20033;-65
2021/12/23 08:19:28;;;;;;;31.93;13.60;;;;;;;-1.50;100.00;17761.97;5010866;28;20083;-65
2021/12/23 08:21:53;;;;;;;35.00;14.87;;;;;;;-1.48;100.00;16431.78;5019827;28;20112;-64
2021/12/23 08:24:19;;;;;;;34.13;14.00;;;;;;;-1.45;100.00;16477.81;5002032;28;20270;-65
2021/12/23 08:26:51;;;;;;;29.43;12.70;;;;;;;-1.41;100.00;13633.53;5003116;28;20021;-64
2021/12/23 08:29:18;;;;;;;35.38;14.98;;;;;;;-1.39;100.00;10024.56;5012151;28;20028;-64
2021/12/23 08:31:52;;;;;;;35.80;15.40;;;;;;;-1.34;100.00;8270.81;5001693;28;20030;-65
2021/12/23 08:34:21;;;;;;;31.07;12.23;;;;;;;-1.34;100.00;5880.94;5001591;28;20293;-64
2021/12/23 08:36:48;;;;;;;30.73;13.07;;;;;;;-1.31;100.00;4986.22;5001464;28;20029;-64
2021/12/23 08:39:14;;;;;;;32.20;13.60;;;;;;;-1.27;100.00;4470.66;5012531;28;20302;-65
2021/12/23 08:41:40;;;;;;;26.13;13.03;;;;;;;-1.27;100.00;2556.63;5016784;28;20268;-65
2021/12/23 08:44:05;;;;;;;29.97;14.57;;;;;;;-1.26;100.00;1204.06;5011353;28;20327;-65
2021/12/23 08:46:31;;;;;;;31.83;14.10;;;;;;;-1.19;100.00;-1454.56;5020973;28;20747;-65
2021/12/23 08:48:56;;;;;;;27.70;12.40;;;;;;;-1.15;100.00;-2444.91;5009088;28;20026;-65
2021/12/23 08:51:22;;;;;;;35.37;14.43;;;;;;;-1.09;100.00;-5131.22;5010210;28;20080;-65
2021/12/23 08:53:48;;;;;;;28.60;13.00;;;;;;;-1.05;100.00;-8484.03;5014271;28;20026;-65
2021/12/23 08:56:13;;;;;;;28.23;12.87;;;;;;;-1.05;100.00;-11485.78;5020356;28;20028;-65
2021/12/23 08:58:40;;;;;;;28.90;12.90;;;;;;;-1.04;100.00;-11910.25;5019331;28;20029;-65
2021/12/23 09:01:06;;;;;;;30.47;13.60;;;;;;;-1.04;100.00;-12205.53;5010204;28;20075;-65
2021/12/23 09:03:34;;;;;;;30.83;12.17;;;;;;;-0.99;100.00;-11836.53;5020199;28;20270;-65
2021/12/23 09:06:02;;;;;;;28.77;13.50;;;;;;;-0.99;100.00;-12581.03;5003626;28;20297;-65
2021/12/23 09:08:28;;;;;;;36.83;15.37;;;;;;;-0.97;100.00;-12660.69;5011615;28;20739;-65
2021/12/23 09:10:55;;;;;;;29.63;12.67;;;;;;;-0.99;100.00;-14024.66;5017885;28;20371;-65
2021/12/23 09:13:22;;;;;;;30.40;13.47;;;;;;;-0.94;100.00;-14288.47;5020735;28;20034;-65
2021/12/23 09:15:47;;;;;;;31.13;12.77;;;;;;;-0.90;100.00;-15506.75;5016872;28;20029;-65
2021/12/23 09:18:13;;;;;;;31.27;14.50;;;;;;;-0.91;100.00;-16346.88;5019947;28;20021;-65
2021/12/23 09:20:39;;;;;;;32.17;13.57;;;;;;;-0.88;100.00;-16466.53;5011526;28;20037;-65
2021/12/23 09:23:07;;;;;;;28.87;12.83;;;;;;;-0.88;100.00;-16017.97;5010992;28;20384;-65
2021/12/23 09:25:33;;;;;;;33.37;13.50;;;;;;;-0.83;100.00;-16596.53;5003238;28;20429;-65
2021/12/23 09:28:11;;;;;;;26.93;12.17;;;;;;;-0.79;100.00;-16617.16;5011173;28;20144;-65
2021/12/23 09:33:22;;;;;;;28.80;12.90;;;;;;;-0.80;100.00;-16763.16;5012112;28;20095;-65
2021/12/23 09:35:48;;;;;;;35.17;15.07;;;;;;;-0.78;100.00;-17311.38;5023968;28;20298;-65
2021/12/23 09:38:14;;;;;;;33.33;13.73;;;;;;;-0.79;100.00;-18059.63;5006541;28;20332;-65
2021/12/23 09:40:40;;;;;;;31.90;13.10;;;;;;;-0.77;100.00;-18867.69;5012595;28;20113;-65
2021/12/23 09:43:13;;;;;;;28.87;13.20;;;;;;;-0.75;100.00;-18922.84;5007675;28;20073;-65
2021/12/23 09:45:42;;;;;;;32.57;13.37;;;;;;;-0.73;100.00;-19148.19;5016669;28;20108;-65
2021/12/23 09:48:08;;;;;;;33.60;13.77;;;;;;;-0.67;100.00;-19149.78;5007408;28;20682;-65
2021/12/23 09:50:39;;;;;;;31.10;14.13;;;;;;;-0.60;100.00;-19151.63;5021920;28;20034;-65
2021/12/23 09:53:05;;;;;;;27.73;12.97;;;;;;;-0.54;100.00;-19152.97;5015814;28;20311;-65
2021/12/23 09:55:33;;;;;;;31.17;13.40;;;;;;;-0.49;100.00;-19154.31;5020814;28;20025;-65
2021/12/23 09:57:59;;;;;;;35.00;13.73;;;;;;;-0.51;100.00;-19153.91;5008031;28;20033;-65
2021/12/23 10:00:28;;;;;;;32.30;12.80;;;;;;;-0.51;100.00;-19153.91;5020634;28;20112;-65
2021/12/23 10:02:54;;;;;;;31.87;14.10;;;;;;;-0.52;100.00;-19153.50;5017112;28;20041;-65
2021/12/23 10:05:23;;;;;;;27.77;12.30;;;;;;;-0.48;100.00;-19154.69;5004418;28;20050;-65
2021/12/23 10:07:49;;;;;;;30.93;13.90;;;;;;;-0.46;100.00;-19155.09;5016153;28;20029;-65
2021/12/23 10:10:25;;;;;;;28.13;13.00;;;;;;;-0.46;100.00;-19155.09;5024316;28;20437;-65
2021/12/23 10:38:15;;;;;;;30.17;13.70;;;;;;;-0.26;100.00;-19160.41;5013381;28;20036;-65
2021/12/23 10:40:44;;;;;;;51.03;14.50;;;;;;;-0.21;100.00;-19161.75;5004077;28;20449;-65
2021/12/23 10:43:25;;;;;;;31.50;14.07;;;;;;;-0.21;100.00;-19161.75;5003257;28;20080;-65
2021/12/23 10:45:57;;;;;;;38.97;14.40;;;;;;;-0.19;100.00;-19162.28;5013457;28;20375;-65
2021/12/23 10:48:30;;;;;;;32.28;13.18;;;;;;;-0.19;100.00;-19162.28;5010096;28;20032;-65
2021/12/23 10:51:07;;;;;;;34.73;14.30;;;;;;;-0.14;100.00;-19163.63;5017658;28;20240;-65
2021/12/23 10:54:18;;;;;;;31.77;14.13;;;;;;;-0.15;100.00;-19163.22;5019442;28;20214;-65
2021/12/23 10:59:27;;;;;;;29.97;13.87;;;;;;;-0.18;100.00;-19162.56;5015251;28;20103;-65
2021/12/23 11:02:25;;;;;;;32.97;15.20;;;;;;;-0.13;100.00;-19163.88;5019244;28;20532;-65
2021/12/23 11:05:22;;;;;;;33.10;15.67;;;;;;;-0.18;100.00;-19162.56;5021115;28;20041;-66
2021/12/23 11:08:01;;;;;;;33.17;13.60;;;;;;;-0.08;100.00;-19165.22;5021683;28;20175;-65
2021/12/23 11:36:21;;;;;;;36.60;15.97;;;;;;;0.01;100.00;-19167.47;5022062;28;20750;-66
2021/12/23 11:41:32;;;;;;;36.53;14.17;;;;;;;0.01;100.00;-19167.34;5019244;28;20021;-66
2021/12/23 11:44:00;;;;;;;35.97;15.07;;;;;;;0.04;100.00;-19168.16;5009557;28;20108;-66
2021/12/23 11:46:37;;;;;;;40.10;15.97;;;;;;;0.07;100.00;-19168.94;5014998;28;20030;-66
2021/12/23 11:49:07;;;;;;;38.03;15.77;;;;;;;0.08;100.00;-19169.22;5002481;28;20060;-66
2021/12/23 11:51:45;;;;;;;42.37;15.80;;;;;;;0.06;100.00;-19168.69;5006449;28;20049;-66
2021/12/23 11:54:14;;;;;;;37.53;14.47;;;;;;;0.05;100.00;-19168.41;5002338;28;20072;-66
2021/12/23 11:56:50;;;;;;;34.83;14.73;;;;;;;0.06;100.00;-19168.81;5007367;28;20017;-66
2021/12/23 11:59:17;;;;;;;38.37;14.93;;;;;;;0.05;100.00;-19156.63;5016658;28;20064;-66
2021/12/23 12:01:42;;;;;;;37.07;14.83;;;;;;;0.07;100.00;-18867.06;5004130;28;20377;-66
2021/12/23 12:04:10;;;;;;;37.33;15.33;;;;;;;0.08;100.00;-18988.75;5013259;28;20124;-66
2021/12/23 12:06:35;;;;;;;40.83;15.33;;;;;;;0.06;100.00;-18400.41;5021391;28;20036;-66
2021/12/23 12:09:22;;;;;;;40.30;16.20;;;;;;;0.09;100.00;-18267.19;5010236;28;20038;-66
2021/12/23 12:11:58;;;;;;;35.87;14.63;;;;;;;0.09;100.00;-15931.56;5002213;28;20060;-66
2021/12/23 12:14:40;;;;;;;37.83;14.93;;;;;;;0.08;100.00;-14498.38;5017496;28;20029;-66
2021/12/23 12:17:24;;;;;;;39.60;14.90;;;;;;;0.06;100.00;-12378.44;5016182;28;20033;-67
2021/12/23 12:20:21;;;;;;;38.10;15.10;;;;;;;0.06;100.00;-11334.34;5002287;28;20107;-67